sensor_id;sensor_type;location;lat;lon;timestamp;P1;durP1;ratioP1;P2;durP2;ratioP2
77955;SDS011;67152;36.266;32.294;2023-02-13T08:53:11;4.80;;;2.78;;
77955;SDS011;67152;36.266;32.294;2023-02-13T08:55:39;5.47;;;2.78;;
77955;SDS011;67152;36.266;32.294;2023-02-13T08:58:05;12.05;;;3.70;;
77955;SDS011;67152;36.266;32.294;2023-02-13T09:00:32;12.07;;;4.33;;
77955;SDS011;67152;36.266;32.294;2023-02-13T09:03:02;6.20;;;2.53;;
77955;SDS011;67152;36.266;32.294;2023-02-13T09:05:30;5.13;;;3.45;;
77955;SDS011;67152;36.266;32.294;2023-02-13T09:08:00;10.73;;;2.55;;
77955;SDS011;67152;36.266;32.294;2023-02-13T09:10:31;7.75;;;4.03;;
77955;SDS011;67152;36.266;32.294;2023-02-13T09:12:58;16.17;;;4.57;;
77955;SDS011;67152;36.266;32.294;2023-02-13T09:15:32;6.82;;;4.00;;
77955;SDS011;67152;36.266;32.294;2023-02-13T09:17:59;5.38;;;3.28;;
77955;SDS011;67152;36.266;32.294;2023-02-13T09:20:25;6.13;;;3.07;;
77955;SDS011;67152;36.266;32.294;2023-02-13T09:23:33;3.85;;;2.22;;
77955;SDS011;67152;36.266;32.294;2023-02-13T09:26:02;8.48;;;3.67;;
77955;SDS011;67152;36.266;32.294;2023-02-13T09:28:31;6.32;;;2.70;;
77955;SDS011;67152;36.266;32.294;2023-02-13T09:30:59;7.30;;;3.05;;
77955;SDS011;67152;36.266;32.294;2023-02-13T09:33:36;6.15;;;2.97;;
77955;SDS011;67152;36.266;32.294;2023-02-13T09:36:07;6.28;;;3.40;;
77955;SDS011;67152;36.266;32.294;2023-02-13T09:38:40;11.07;;;3.20;;
77955;SDS011;67152;36.266;32.294;2023-02-13T09:41:14;4.57;;;3.75;;
77955;SDS011;67152;36.266;32.294;2023-02-13T09:43:48;3.67;;;2.22;;
77955;SDS011;67152;36.266;32.294;2023-02-13T09:46:18;4.15;;;3.28;;
77955;SDS011;67152;36.266;32.294;2023-02-13T09:48:48;6.80;;;3.55;;
77955;SDS011;67152;36.266;32.294;2023-02-13T09:51:17;5.32;;;3.83;;
77955;SDS011;67152;36.266;32.294;2023-02-13T09:54:07;5.55;;;4.78;;
77955;SDS011;67152;36.266;32.294;2023-02-13T10:16:31;3.78;;;2.83;;
77955;SDS011;67152;36.266;32.294;2023-02-13T10:19:14;3.05;;;1.98;;
77955;SDS011;67152;36.266;32.294;2023-02-13T10:22:06;9.68;;;3.97;;
77955;SDS011;67152;36.266;32.294;2023-02-13T10:24:49;9.65;;;3.55;;
77955;SDS011;67152;36.266;32.294;2023-02-13T10:27:29;9.27;;;3.70;;
77955;SDS011;67152;36.266;32.294;2023-02-13T10:35:58;4.78;;;2.25;;
77955;SDS011;67152;36.266;32.294;2023-02-13T10:38:27;8.02;;;5.05;;
77955;SDS011;67152;36.266;32.294;2023-02-13T10:43:35;5.68;;;4.03;;
77955;SDS011;67152;36.266;32.294;2023-02-13T10:46:21;4.97;;;3.08;;
77955;SDS011;67152;36.266;32.294;2023-02-13T10:49:07;6.05;;;3.45;;
77955;SDS011;67152;36.266;32.294;2023-02-13T10:51:48;5.03;;;3.60;;
77955;SDS011;67152;36.266;32.294;2023-02-13T10:54:45;5.25;;;3.50;;
77955;SDS011;67152;36.266;32.294;2023-02-13T10:57:21;6.90;;;4.10;;
77955;SDS011;67152;36.266;32.294;2023-02-13T11:00:06;8.32;;;5.30;;
77955;SDS011;67152;36.266;32.294;2023-02-13T11:02:43;13.02;;;3.72;;
77955;SDS011;67152;36.266;32.294;2023-02-13T11:05:23;5.72;;;3.90;;
77955;SDS011;67152;36.266;32.294;2023-02-13T11:07:51;3.95;;;2.53;;
77955;SDS011;67152;36.266;32.294;2023-02-13T11:10:20;5.63;;;2.93;;
77955;SDS011;67152;36.266;32.294;2023-02-13T11:12:48;5.45;;;3.50;;
77955;SDS011;67152;36.266;32.294;2023-02-13T11:15:28;6.07;;;3.00;;
77955;SDS011;67152;36.266;32.294;2023-02-13T11:17:57;4.90;;;2.92;;
77955;SDS011;67152;36.266;32.294;2023-02-13T11:20:40;6.40;;;3.88;;
77955;SDS011;67152;36.266;32.294;2023-02-13T11:28:36;7.43;;;3.78;;
77955;SDS011;67152;36.266;32.294;2023-02-13T11:31:29;7.07;;;4.68;;
77955;SDS011;67152;36.266;32.294;2023-02-13T11:36:52;4.78;;;2.80;;
77955;SDS011;67152;36.266;32.294;2023-02-13T11:39:20;7.18;;;3.75;;
77955;SDS011;67152;36.266;32.294;2023-02-13T11:41:48;7.88;;;4.57;;
77955;SDS011;67152;36.266;32.294;2023-02-13T11:46:50;11.88;;;5.30;;
77955;SDS011;67152;36.266;32.294;2023-02-13T11:49:28;8.82;;;4.45;;
77955;SDS011;67152;36.266;32.294;2023-02-13T11:52:04;12.65;;;4.88;;
77955;SDS011;67152;36.266;32.294;2023-02-13T11:54:40;8.43;;;2.97;;
77955;SDS011;67152;36.266;32.294;2023-02-13T11:59:51;8.25;;;2.53;;
77955;SDS011;67152;36.266;32.294;2023-02-13T12:02:21;5.32;;;3.38;;
77955;SDS011;67152;36.266;32.294;2023-02-13T12:05:28;8.35;;;3.15;;
77955;SDS011;67152;36.266;32.294;2023-02-13T12:07:49;7.13;;;4.50;;
77955;SDS011;67152;36.266;32.294;2023-02-13T12:15:33;11.73;;;4.88;;
77955;SDS011;67152;36.266;32.294;2023-02-13T12:20:48;4.97;;;2.35;;
77955;SDS011;67152;36.266;32.294;2023-02-13T12:26:24;10.18;;;3.42;;
77955;SDS011;67152;36.266;32.294;2023-02-13T12:40:29;4.80;;;2.75;;
77955;SDS011;67152;36.266;32.294;2023-02-13T12:43:23;10.77;;;3.40;;
77955;SDS011;67152;36.266;32.294;2023-02-13T12:48:55;11.57;;;3.70;;
77955;SDS011;67152;36.266;32.294;2023-02-13T13:05:29;6.43;;;3.40;;
77955;SDS011;67152;36.266;32.294;2023-02-13T13:14:20;4.25;;;3.03;;
77955;SDS011;67152;36.266;32.294;2023-02-13T13:22:30;7.13;;;3.50;;
77955;SDS011;67152;36.266;32.294;2023-02-13T13:27:35;4.95;;;3.13;;
77955;SDS011;67152;36.266;32.294;2023-02-13T13:30:12;5.85;;;3.03;;
77955;SDS011;67152;36.266;32.294;2023-02-13T13:32:49;5.40;;;3.17;;
77955;SDS011;67152;36.266;32.294;2023-02-13T13:35:20;8.60;;;3.55;;
77955;SDS011;67152;36.266;32.294;2023-02-13T13:45:46;8.27;;;3.83;;
77955;SDS011;67152;36.266;32.294;2023-02-13T13:51:37;8.50;;;3.78;;
77955;SDS011;67152;36.266;32.294;2023-02-13T14:07:36;5.43;;;3.55;;
77955;SDS011;67152;36.266;32.294;2023-02-13T14:20:35;5.50;;;3.42;;
77955;SDS011;67152;36.266;32.294;2023-02-13T14:33:58;8.07;;;3.05;;
77955;SDS011;67152;36.266;32.294;2023-02-13T14:36:26;8.48;;;2.72;;
77955;SDS011;67152;36.266;32.294;2023-02-13T14:39:02;8.00;;;3.45;;
77955;SDS011;67152;36.266;32.294;2023-02-13T14:41:40;6.15;;;2.60;;
77955;SDS011;67152;36.266;32.294;2023-02-13T14:44:18;16.75;;;3.53;;
77955;SDS011;67152;36.266;32.294;2023-02-13T14:46:48;13.50;;;4.30;;
77955;SDS011;67152;36.266;32.294;2023-02-13T14:49:20;7.80;;;4.05;;
77955;SDS011;67152;36.266;32.294;2023-02-13T14:51:52;7.03;;;3.28;;
77955;SDS011;67152;36.266;32.294;2023-02-13T14:54:25;20.08;;;5.85;;
77955;SDS011;67152;36.266;32.294;2023-02-13T14:57:16;5.75;;;3.28;;
77955;SDS011;67152;36.266;32.294;2023-02-13T14:59:46;8.77;;;2.67;;
77955;SDS011;67152;36.266;32.294;2023-02-13T15:02:25;17.30;;;4.85;;
77955;SDS011;67152;36.266;32.294;2023-02-13T15:05:09;5.05;;;2.90;;
77955;SDS011;67152;36.266;32.294;2023-02-13T15:13:20;7.60;;;4.20;;
77955;SDS011;67152;36.266;32.294;2023-02-13T15:15:55;12.68;;;4.25;;
77955;SDS011;67152;36.266;32.294;2023-02-13T15:18:27;4.80;;;2.90;;
77955;SDS011;67152;36.266;32.294;2023-02-13T15:20:56;11.02;;;3.25;;
77955;SDS011;67152;36.266;32.294;2023-02-13T15:23:26;7.78;;;2.65;;
77955;SDS011;67152;36.266;32.294;2023-02-13T15:25:59;13.10;;;2.88;;
77955;SDS011;67152;36.266;32.294;2023-02-13T15:28:27;7.05;;;3.65;;
77955;SDS011;67152;36.266;32.294;2023-02-13T15:30:55;4.22;;;2.13;;
77955;SDS011;67152;36.266;32.294;2023-02-13T15:33:28;6.32;;;3.20;;
77955;SDS011;67152;36.266;32.294;2023-02-13T15:36:17;7.93;;;2.70;;
77955;SDS011;67152;36.266;32.294;2023-02-13T15:38:46;13.32;;;5.95;;
77955;SDS011;67152;36.266;32.294;2023-02-13T15:41:20;7.93;;;5.03;;
77955;SDS011;67152;36.266;32.294;2023-02-13T15:43:50;9.85;;;3.63;;
77955;SDS011;67152;36.266;32.294;2023-02-13T15:48:55;11.15;;;4.78;;
77955;SDS011;67152;36.266;32.294;2023-02-13T15:51:25;13.35;;;6.20;;
77955;SDS011;67152;36.266;32.294;2023-02-13T15:53:58;10.93;;;4.13;;
77955;SDS011;67152;36.266;32.294;2023-02-13T15:56:29;17.45;;;4.05;;
77955;SDS011;67152;36.266;32.294;2023-02-13T15:59:17;9.20;;;4.32;;
77955;SDS011;67152;36.266;32.294;2023-02-13T16:01:44;16.92;;;4.15;;
77955;SDS011;67152;36.266;32.294;2023-02-13T16:04:12;8.13;;;2.67;;
77955;SDS011;67152;36.266;32.294;2023-02-13T16:06:41;5.50;;;2.72;;
77955;SDS011;67152;36.266;32.294;2023-02-13T16:09:30;15.00;;;3.30;;
77955;SDS011;67152;36.266;32.294;2023-02-13T16:12:02;5.68;;;2.90;;
77955;SDS011;67152;36.266;32.294;2023-02-13T16:14:50;4.63;;;2.47;;
77955;SDS011;67152;36.266;32.294;2023-02-13T16:22:53;6.60;;;2.70;;
77955;SDS011;67152;36.266;32.294;2023-02-13T16:25:35;4.13;;;2.38;;
77955;SDS011;67152;36.266;32.294;2023-02-13T16:28:18;5.28;;;2.08;;
77955;SDS011;67152;36.266;32.294;2023-02-13T16:33:31;5.45;;;2.35;;
77955;SDS011;67152;36.266;32.294;2023-02-13T16:36:00;4.82;;;2.45;;
77955;SDS011;67152;36.266;32.294;2023-02-13T16:38:44;17.08;;;2.78;;
77955;SDS011;67152;36.266;32.294;2023-02-13T16:43:48;7.22;;;2.72;;
77955;SDS011;67152;36.266;32.294;2023-02-13T16:46:22;4.50;;;2.50;;
77955;SDS011;67152;36.266;32.294;2023-02-13T16:56:43;4.03;;;2.70;;
77955;SDS011;67152;36.266;32.294;2023-02-13T17:02:16;4.82;;;2.47;;
77955;SDS011;67152;36.266;32.294;2023-02-13T17:07:34;9.82;;;2.88;;
77955;SDS011;67152;36.266;32.294;2023-02-13T17:10:06;3.45;;;2.42;;
77955;SDS011;67152;36.266;32.294;2023-02-13T17:12:43;3.47;;;1.60;;
77955;SDS011;67152;36.266;32.294;2023-02-13T17:15:14;5.50;;;2.80;;
77955;SDS011;67152;36.266;32.294;2023-02-13T17:17:43;4.32;;;1.98;;
77955;SDS011;67152;36.266;32.294;2023-02-13T17:22:43;3.97;;;2.17;;
77955;SDS011;67152;36.266;32.294;2023-02-13T17:25:17;4.80;;;2.72;;
77955;SDS011;67152;36.266;32.294;2023-02-13T17:27:53;7.53;;;2.50;;
77955;SDS011;67152;36.266;32.294;2023-02-13T17:30:31;3.25;;;2.25;;
77955;SDS011;67152;36.266;32.294;2023-02-13T17:33:03;6.60;;;3.53;;
77955;SDS011;67152;36.266;32.294;2023-02-13T17:35:48;6.22;;;2.50;;
77955;SDS011;67152;36.266;32.294;2023-02-13T17:38:15;6.35;;;2.95;;
77955;SDS011;67152;36.266;32.294;2023-02-13T17:40:43;6.20;;;2.72;;
77955;SDS011;67152;36.266;32.294;2023-02-13T17:43:11;9.05;;;2.70;;
77955;SDS011;67152;36.266;32.294;2023-02-13T17:45:41;4.45;;;2.53;;
77955;SDS011;67152;36.266;32.294;2023-02-13T17:48:11;4.95;;;2.50;;
77955;SDS011;67152;36.266;32.294;2023-02-13T17:50:38;3.93;;;2.53;;
77955;SDS011;67152;36.266;32.294;2023-02-13T17:53:06;7.72;;;4.40;;
77955;SDS011;67152;36.266;32.294;2023-02-13T17:55:57;5.75;;;3.15;;
77955;SDS011;67152;36.266;32.294;2023-02-13T17:58:28;5.53;;;3.28;;
77955;SDS011;67152;36.266;32.294;2023-02-13T18:00:58;5.72;;;3.20;;
77955;SDS011;67152;36.266;32.294;2023-02-13T18:03:26;5.05;;;2.80;;
77955;SDS011;67152;36.266;32.294;2023-02-13T18:05:53;6.72;;;2.88;;
77955;SDS011;67152;36.266;32.294;2023-02-13T18:08:20;4.75;;;2.75;;
77955;SDS011;67152;36.266;32.294;2023-02-13T18:10:47;13.48;;;4.07;;
77955;SDS011;67152;36.266;32.294;2023-02-13T18:13:14;6.53;;;3.60;;
77955;SDS011;67152;36.266;32.294;2023-02-13T18:15:42;5.32;;;3.28;;
77955;SDS011;67152;36.266;32.294;2023-02-13T18:18:13;5.93;;;2.85;;
77955;SDS011;67152;36.266;32.294;2023-02-13T18:20:41;6.68;;;3.30;;
77955;SDS011;67152;36.266;32.294;2023-02-13T18:23:08;4.82;;;2.33;;
77955;SDS011;67152;36.266;32.294;2023-02-13T18:25:36;4.70;;;2.58;;
77955;SDS011;67152;36.266;32.294;2023-02-13T18:28:03;4.10;;;2.80;;
77955;SDS011;67152;36.266;32.294;2023-02-13T18:30:30;3.92;;;1.88;;
77955;SDS011;67152;36.266;32.294;2023-02-13T18:32:58;5.75;;;2.50;;
77955;SDS011;67152;36.266;32.294;2023-02-13T18:35:30;3.30;;;2.10;;
77955;SDS011;67152;36.266;32.294;2023-02-13T18:38:16;4.87;;;2.63;;
77955;SDS011;67152;36.266;32.294;2023-02-13T18:40:44;6.40;;;3.50;;
77955;SDS011;67152;36.266;32.294;2023-02-13T18:43:11;6.50;;;3.33;;
77955;SDS011;67152;36.266;32.294;2023-02-13T18:45:38;5.85;;;2.67;;
77955;SDS011;67152;36.266;32.294;2023-02-13T18:48:26;8.23;;;4.00;;
77955;SDS011;67152;36.266;32.294;2023-02-13T18:50:54;4.72;;;2.45;;
77955;SDS011;67152;36.266;32.294;2023-02-13T18:53:26;7.13;;;2.42;;
77955;SDS011;67152;36.266;32.294;2023-02-13T18:56:00;7.22;;;3.78;;
77955;SDS011;67152;36.266;32.294;2023-02-13T18:58:28;4.85;;;2.40;;
77955;SDS011;67152;36.266;32.294;2023-02-13T19:01:16;7.00;;;3.88;;
77955;SDS011;67152;36.266;32.294;2023-02-13T19:03:45;3.95;;;1.85;;
77955;SDS011;67152;36.266;32.294;2023-02-13T19:06:33;4.35;;;2.65;;
77955;SDS011;67152;36.266;32.294;2023-02-13T19:11:29;5.43;;;3.63;;
77955;SDS011;67152;36.266;32.294;2023-02-13T19:13:59;7.78;;;4.28;;
77955;SDS011;67152;36.266;32.294;2023-02-13T19:16:28;7.03;;;3.90;;
77955;SDS011;67152;36.266;32.294;2023-02-13T19:18:57;7.13;;;3.85;;
77955;SDS011;67152;36.266;32.294;2023-02-13T19:21:27;4.22;;;2.25;;
77955;SDS011;67152;36.266;32.294;2023-02-13T19:23:55;7.88;;;3.30;;
77955;SDS011;67152;36.266;32.294;2023-02-13T19:26:25;6.15;;;2.42;;
77955;SDS011;67152;36.266;32.294;2023-02-13T19:28:55;4.32;;;2.50;;
77955;SDS011;67152;36.266;32.294;2023-02-13T19:31:24;3.47;;;2.17;;
77955;SDS011;67152;36.266;32.294;2023-02-13T19:33:52;7.97;;;2.90;;
77955;SDS011;67152;36.266;32.294;2023-02-13T19:36:21;3.80;;;1.95;;
77955;SDS011;67152;36.266;32.294;2023-02-13T19:38:53;5.70;;;3.00;;
77955;SDS011;67152;36.266;32.294;2023-02-13T19:41:21;6.40;;;2.50;;
77955;SDS011;67152;36.266;32.294;2023-02-13T19:43:48;3.67;;;2.42;;
77955;SDS011;67152;36.266;32.294;2023-02-13T19:46:17;3.72;;;1.92;;
77955;SDS011;67152;36.266;32.294;2023-02-13T19:48:50;3.95;;;1.95;;
77955;SDS011;67152;36.266;32.294;2023-02-13T19:51:19;2.42;;;1.45;;
77955;SDS011;67152;36.266;32.294;2023-02-13T19:53:47;4.28;;;2.13;;
77955;SDS011;67152;36.266;32.294;2023-02-13T19:56:14;6.45;;;3.38;;
77955;SDS011;67152;36.266;32.294;2023-02-13T19:58:41;4.63;;;2.67;;
77955;SDS011;67152;36.266;32.294;2023-02-13T20:01:12;4.68;;;2.75;;
77955;SDS011;67152;36.266;32.294;2023-02-13T20:03:41;5.47;;;2.88;;
77955;SDS011;67152;36.266;32.294;2023-02-13T20:06:12;4.35;;;2.50;;
77955;SDS011;67152;36.266;32.294;2023-02-13T20:08:42;3.53;;;2.20;;
77955;SDS011;67152;36.266;32.294;2023-02-13T20:11:10;12.20;;;2.90;;
77955;SDS011;67152;36.266;32.294;2023-02-13T20:13:38;2.78;;;1.83;;
77955;SDS011;67152;36.266;32.294;2023-02-13T20:16:06;4.57;;;2.72;;
77955;SDS011;67152;36.266;32.294;2023-02-13T20:18:35;7.07;;;3.28;;
77955;SDS011;67152;36.266;32.294;2023-02-13T20:21:06;7.05;;;4.57;;
77955;SDS011;67152;36.266;32.294;2023-02-13T20:23:34;13.95;;;7.00;;
77955;SDS011;67152;36.266;32.294;2023-02-13T20:26:05;8.52;;;4.90;;
77955;SDS011;67152;36.266;32.294;2023-02-13T20:28:33;6.80;;;4.00;;
77955;SDS011;67152;36.266;32.294;2023-02-13T20:31:20;15.10;;;5.32;;
77955;SDS011;67152;36.266;32.294;2023-02-13T20:33:48;11.65;;;5.55;;
77955;SDS011;67152;36.266;32.294;2023-02-13T20:36:20;6.78;;;3.38;;
77955;SDS011;67152;36.266;32.294;2023-02-13T20:38:51;12.02;;;5.43;;
77955;SDS011;67152;36.266;32.294;2023-02-13T20:41:21;9.88;;;4.78;;
77955;SDS011;67152;36.266;32.294;2023-02-13T20:43:51;16.23;;;8.65;;
77955;SDS011;67152;36.266;32.294;2023-02-13T20:46:18;13.93;;;6.68;;
77955;SDS011;67152;36.266;32.294;2023-02-13T20:48:45;13.57;;;7.80;;
77955;SDS011;67152;36.266;32.294;2023-02-13T20:51:14;17.05;;;8.10;;
77955;SDS011;67152;36.266;32.294;2023-02-13T20:53:42;17.02;;;8.57;;
77955;SDS011;67152;36.266;32.294;2023-02-13T20:56:14;16.83;;;7.25;;
77955;SDS011;67152;36.266;32.294;2023-02-13T20:58:41;9.05;;;4.18;;
77955;SDS011;67152;36.266;32.294;2023-02-13T21:01:10;9.35;;;4.78;;
77955;SDS011;67152;36.266;32.294;2023-02-13T21:03:37;18.20;;;7.05;;
77955;SDS011;67152;36.266;32.294;2023-02-13T21:06:05;8.30;;;4.10;;
77955;SDS011;67152;36.266;32.294;2023-02-13T21:08:32;9.45;;;4.32;;
77955;SDS011;67152;36.266;32.294;2023-02-13T21:11:00;15.52;;;4.20;;
77955;SDS011;67152;36.266;32.294;2023-02-13T21:13:28;7.38;;;3.35;;
77955;SDS011;67152;36.266;32.294;2023-02-13T21:16:04;5.40;;;2.53;;
77955;SDS011;67152;36.266;32.294;2023-02-13T21:18:32;3.33;;;1.85;;
77955;SDS011;67152;36.266;32.294;2023-02-13T21:21:00;2.58;;;1.20;;
77955;SDS011;67152;36.266;32.294;2023-02-13T21:23:27;3.85;;;2.63;;
77955;SDS011;67152;36.266;32.294;2023-02-13T21:25:54;4.63;;;2.10;;
77955;SDS011;67152;36.266;32.294;2023-02-13T21:28:21;12.10;;;3.38;;
77955;SDS011;67152;36.266;32.294;2023-02-13T21:30:48;7.90;;;4.68;;
77955;SDS011;67152;36.266;32.294;2023-02-13T21:33:15;6.78;;;3.08;;
77955;SDS011;67152;36.266;32.294;2023-02-13T21:35:42;8.07;;;4.05;;
77955;SDS011;67152;36.266;32.294;2023-02-13T21:38:08;7.50;;;4.72;;
77955;SDS011;67152;36.266;32.294;2023-02-13T21:40:35;6.60;;;3.00;;
77955;SDS011;67152;36.266;32.294;2023-02-13T21:43:02;5.85;;;2.88;;
77955;SDS011;67152;36.266;32.294;2023-02-13T21:45:29;4.68;;;2.70;;
77955;SDS011;67152;36.266;32.294;2023-02-13T21:48:16;3.25;;;1.70;;
77955;SDS011;67152;36.266;32.294;2023-02-13T21:50:42;7.15;;;3.42;;
77955;SDS011;67152;36.266;32.294;2023-02-13T21:53:09;4.00;;;2.22;;
77955;SDS011;67152;36.266;32.294;2023-02-13T21:55:36;5.43;;;2.50;;
77955;SDS011;67152;36.266;32.294;2023-02-13T21:58:03;6.32;;;3.55;;
77955;SDS011;67152;36.266;32.294;2023-02-13T22:00:29;3.97;;;2.47;;
77955;SDS011;67152;36.266;32.294;2023-02-13T22:02:56;6.43;;;3.40;;
77955;SDS011;67152;36.266;32.294;2023-02-13T22:05:24;9.38;;;4.32;;
77955;SDS011;67152;36.266;32.294;2023-02-13T22:07:51;6.55;;;3.60;;
77955;SDS011;67152;36.266;32.294;2023-02-13T22:10:36;10.75;;;5.38;;
77955;SDS011;67152;36.266;32.294;2023-02-13T22:13:03;5.38;;;3.20;;
77955;SDS011;67152;36.266;32.294;2023-02-13T22:15:30;5.43;;;2.45;;
77955;SDS011;67152;36.266;32.294;2023-02-13T22:17:57;6.38;;;3.90;;
77955;SDS011;67152;36.266;32.294;2023-02-13T22:20:24;6.20;;;3.65;;
77955;SDS011;67152;36.266;32.294;2023-02-13T22:22:51;6.07;;;3.08;;
77955;SDS011;67152;36.266;32.294;2023-02-13T22:25:19;6.20;;;3.70;;
77955;SDS011;67152;36.266;32.294;2023-02-13T22:27:46;9.57;;;4.43;;
77955;SDS011;67152;36.266;32.294;2023-02-13T22:30:13;6.15;;;3.05;;
77955;SDS011;67152;36.266;32.294;2023-02-13T22:32:40;9.10;;;5.03;;
77955;SDS011;67152;36.266;32.294;2023-02-13T22:35:07;7.33;;;3.17;;
77955;SDS011;67152;36.266;32.294;2023-02-13T22:37:35;6.20;;;3.33;;
77955;SDS011;67152;36.266;32.294;2023-02-13T22:40:03;5.95;;;2.70;;
77955;SDS011;67152;36.266;32.294;2023-02-13T22:42:30;10.45;;;3.22;;
77955;SDS011;67152;36.266;32.294;2023-02-13T22:44:57;4.38;;;2.17;;
77955;SDS011;67152;36.266;32.294;2023-02-13T22:47:24;4.65;;;1.95;;
77955;SDS011;67152;36.266;32.294;2023-02-13T22:49:51;5.88;;;2.97;;
77955;SDS011;67152;36.266;32.294;2023-02-13T22:52:18;5.50;;;2.13;;
77955;SDS011;67152;36.266;32.294;2023-02-13T22:54:44;5.68;;;2.97;;
77955;SDS011;67152;36.266;32.294;2023-02-13T22:57:11;5.53;;;3.10;;
77955;SDS011;67152;36.266;32.294;2023-02-13T22:59:38;4.97;;;2.60;;
77955;SDS011;67152;36.266;32.294;2023-02-13T23:02:05;6.13;;;3.17;;
77955;SDS011;67152;36.266;32.294;2023-02-13T23:04:32;6.80;;;3.60;;
77955;SDS011;67152;36.266;32.294;2023-02-13T23:06:58;6.93;;;2.92;;
77955;SDS011;67152;36.266;32.294;2023-02-13T23:09:25;2.20;;;1.35;;
77955;SDS011;67152;36.266;32.294;2023-02-13T23:11:52;2.47;;;1.63;;
77955;SDS011;67152;36.266;32.294;2023-02-13T23:14:37;5.93;;;2.15;;
77955;SDS011;67152;36.266;32.294;2023-02-13T23:17:04;4.88;;;2.60;;
77955;SDS011;67152;36.266;32.294;2023-02-13T23:19:49;2.53;;;1.50;;
77955;SDS011;67152;36.266;32.294;2023-02-13T23:22:16;3.97;;;1.90;;
77955;SDS011;67152;36.266;32.294;2023-02-13T23:24:43;2.90;;;1.83;;
77955;SDS011;67152;36.266;32.294;2023-02-13T23:27:09;2.55;;;1.90;;
77955;SDS011;67152;36.266;32.294;2023-02-13T23:29:37;1.60;;;1.13;;
77955;SDS011;67152;36.266;32.294;2023-02-13T23:32:04;4.05;;;2.58;;
77955;SDS011;67152;36.266;32.294;2023-02-13T23:34:33;4.80;;;2.53;;
77955;SDS011;67152;36.266;32.294;2023-02-13T23:37:01;4.30;;;1.92;;
77955;SDS011;67152;36.266;32.294;2023-02-13T23:39:28;5.72;;;2.55;;
77955;SDS011;67152;36.266;32.294;2023-02-13T23:41:54;6.78;;;2.15;;
77955;SDS011;67152;36.266;32.294;2023-02-13T23:44:21;3.33;;;1.25;;
77955;SDS011;67152;36.266;32.294;2023-02-13T23:46:48;5.13;;;2.20;;
77955;SDS011;67152;36.266;32.294;2023-02-13T23:49:15;5.22;;;2.78;;
77955;SDS011;67152;36.266;32.294;2023-02-13T23:51:41;5.78;;;2.95;;
77955;SDS011;67152;36.266;32.294;2023-02-13T23:54:12;9.55;;;2.60;;
77955;SDS011;67152;36.266;32.294;2023-02-13T23:56:42;6.13;;;2.55;;
77955;SDS011;67152;36.266;32.294;2023-02-13T23:59:09;8.10;;;2.70;;
